createdAt,value
2023-01-07T00:02:59.952Z,99758.67
2023-01-07T00:06:07.514Z,99765.15
2023-01-07T00:09:12.608Z,99766.95
2023-01-07T00:12:14.185Z,99765.33
2023-01-07T00:15:15.911Z,99765.94
2023-01-07T00:18:17.697Z,99768.58
2023-01-07T00:21:20.934Z,99776.91
2023-01-07T00:24:22.579Z,99777.04
2023-01-07T00:27:24.329Z,99777.51
2023-01-07T00:30:25.874Z,99772.73
2023-01-07T00:33:27.480Z,99779.54
2023-01-07T00:36:30.167Z,99778.11
2023-01-07T00:39:34.947Z,99779.66
2023-01-07T00:42:36.505Z,99781.51
2023-01-07T00:45:38.250Z,99784.34
2023-01-07T00:48:39.823Z,99784.80
2023-01-07T00:51:41.530Z,99788.84
2023-01-07T00:54:43.392Z,99789.83
2023-01-07T00:57:45.255Z,99794.20
2023-01-07T01:00:47.088Z,99792.90
2023-01-07T01:03:48.748Z,99797.34
2023-01-07T01:06:50.374Z,99797.97
2023-01-07T01:09:52.113Z,99797.27
2023-01-07T01:12:53.749Z,99802.21
2023-01-07T01:15:55.512Z,99806.49
2023-01-07T01:18:57.154Z,99807.38
2023-01-07T01:21:59.192Z,99809.92
2023-01-07T01:25:00.707Z,99811.49
2023-01-07T01:28:02.680Z,99813.75
2023-01-07T01:31:04.687Z,99813.84
2023-01-07T01:34:06.380Z,99817.24
2023-01-07T01:37:08.104Z,99806.90
2023-01-07T01:40:10.712Z,99809.05
2023-01-07T01:43:35.749Z,99811.61
2023-01-07T01:46:42.198Z,99808.52
2023-01-07T01:49:50.207Z,99812.20
2023-01-07T01:53:01.808Z,99808.90
2023-01-07T01:56:09.435Z,99811.82
2023-01-07T01:59:14.643Z,99814.40
2023-01-07T02:02:21.369Z,99810.67
2023-01-07T02:05:26.248Z,99813.95
2023-01-07T02:08:28.295Z,99821.63
2023-01-07T02:11:33.795Z,99828.77
2023-01-07T02:14:47.611Z,99823.34
2023-01-07T02:18:08.905Z,99827.52
2023-01-07T02:21:32.520Z,99825.61
2023-01-07T02:24:49.329Z,99826.11
2023-01-07T02:28:26.431Z,99831.04
2023-01-07T02:32:05.829Z,99830.30
2023-01-07T02:35:07.436Z,99831.62
2023-01-07T02:38:21.285Z,99833.54
2023-01-07T02:41:31.900Z,99835.40
2023-01-07T02:44:48.761Z,99838.21
2023-01-07T02:47:54.574Z,99843.34
2023-01-07T02:50:56.075Z,99845.02
2023-01-07T02:53:57.583Z,99849.45
2023-01-07T02:57:24.472Z,99852.98
2023-01-07T03:00:49.425Z,99853.56
2023-01-07T03:04:10.018Z,99850.41
2023-01-07T03:07:24.863Z,99853.55
2023-01-07T03:10:59.941Z,99857.36
2023-01-07T03:14:13.809Z,99862.33
2023-01-07T03:17:19.841Z,99862.66
2023-01-07T03:20:24.643Z,99865.40
2023-01-07T03:23:27.940Z,99869.36
2023-01-07T03:26:36.513Z,99870.56
2023-01-07T03:29:38.161Z,99867.92
2023-01-07T03:32:41.779Z,99868.08
2023-01-07T03:35:46.019Z,99867.24
2023-01-07T03:38:48.516Z,99866.26
2023-01-07T03:41:50.913Z,99866.83
2023-01-07T03:44:52.586Z,99868.61
2023-01-07T03:47:56.008Z,99865.96
2023-01-07T03:50:57.662Z,99865.17
2023-01-07T03:53:59.113Z,99864.88
2023-01-07T03:57:00.692Z,99860.45
2023-01-07T04:00:02.196Z,99859.23
2023-01-07T04:03:04.052Z,99860.70
2023-01-07T04:06:05.617Z,99859.54
2023-01-07T04:09:07.265Z,99848.37
2023-01-07T04:12:08.921Z,99842.70
2023-01-07T04:15:11.083Z,99842.87
2023-01-07T04:18:12.731Z,99841.53
2023-01-07T04:21:14.233Z,99850.62
2023-01-07T04:24:15.864Z,99855.59
2023-01-07T04:27:17.626Z,99854.61
2023-01-07T04:30:19.123Z,99858.50
2023-01-07T04:33:20.923Z,99856.20
2023-01-07T04:36:22.705Z,99854.02
2023-01-07T04:39:24.197Z,99853.02
2023-01-07T04:42:25.791Z,99856.19
2023-01-07T04:45:27.545Z,99859.29
2023-01-07T04:48:29.469Z,99859.23
2023-01-07T04:51:31.150Z,99863.09
2023-01-07T04:54:32.828Z,99861.49
2023-01-07T04:57:34.496Z,99858.39
2023-01-07T05:00:35.992Z,99863.82
2023-01-07T05:03:38.017Z,99867.21
2023-01-07T05:06:39.555Z,99870.02
2023-01-07T05:09:41.181Z,99871.95
2023-01-07T05:12:42.898Z,99871.77
2023-01-07T05:15:44.863Z,99878.88
2023-01-07T05:18:46.467Z,99878.90
2023-01-07T05:21:48.045Z,99883.56
2023-01-07T05:24:49.695Z,99881.23
2023-01-07T05:27:51.389Z,99884.94
2023-01-07T05:30:53.090Z,99887.10
2023-01-07T05:33:54.671Z,99890.29
2023-01-07T05:36:56.660Z,99890.54
2023-01-07T05:39:58.277Z,99890.86
2023-01-07T05:43:00.047Z,99894.48
2023-01-07T05:46:01.684Z,99899.56
2023-01-07T05:49:03.596Z,99900.38
2023-01-07T05:52:05.241Z,99903.39
2023-01-07T05:55:07.018Z,99902.77
2023-01-07T05:58:08.754Z,99905.15
2023-01-07T06:01:10.295Z,99901.86
2023-01-07T06:04:12.021Z,99901.98
2023-01-07T06:07:13.661Z,99904.39
2023-01-07T06:10:15.303Z,99907.49
2023-01-07T06:13:16.811Z,99908.33
2023-01-07T06:16:18.471Z,99913.06
2023-01-07T06:19:20.136Z,99918.77
2023-01-07T06:22:21.582Z,99915.34
2023-01-07T06:25:23.133Z,99919.68
2023-01-07T06:28:24.796Z,99920.67
2023-01-07T06:31:26.569Z,99924.88
2023-01-07T06:34:28.044Z,99923.59
2023-01-07T06:37:29.874Z,99922.44
2023-01-07T06:40:31.787Z,99921.27
2023-01-07T06:43:33.377Z,99925.26
2023-01-07T06:46:34.912Z,99926.59
2023-01-07T06:49:36.736Z,99928.69
2023-01-07T06:52:38.383Z,99927.36
2023-01-07T06:55:40.004Z,99926.17
2023-01-07T06:58:41.653Z,99924.89
2023-01-07T07:01:46.212Z,99929.49
2023-01-07T07:04:48.409Z,99924.50
2023-01-07T07:07:50.020Z,99923.03
2023-01-07T07:10:51.683Z,99920.14
2023-01-07T07:13:53.268Z,99922.58
2023-01-07T07:16:54.801Z,99926.20
2023-01-07T07:19:56.352Z,99923.64
2023-01-07T07:22:57.878Z,99923.89
2023-01-07T07:25:59.480Z,99923.53
2023-01-07T07:29:01.100Z,99923.63
2023-01-07T07:32:02.696Z,99927.00
2023-01-07T07:35:04.716Z,99932.58
2023-01-07T07:38:06.366Z,99943.02
2023-01-07T07:41:07.845Z,99938.00
2023-01-07T07:44:09.443Z,99938.09
2023-01-07T07:47:13.449Z,99938.88
2023-01-07T07:50:15.076Z,99936.09
2023-01-07T07:53:16.578Z,99932.55
2023-01-07T07:56:18.281Z,99933.51
2023-01-07T07:59:19.834Z,99936.20
2023-01-07T08:02:21.611Z,99934.82
2023-01-07T08:05:23.606Z,99935.25
2023-01-07T08:08:25.366Z,99935.02
2023-01-07T08:11:26.813Z,99932.70
2023-01-07T08:14:28.456Z,99928.04
2023-01-07T08:17:30.061Z,99929.23
2023-01-07T08:20:31.745Z,99927.05
2023-01-07T08:23:33.373Z,99931.97
2023-01-07T08:26:34.980Z,99943.54
2023-01-07T08:29:36.736Z,99945.42
2023-01-07T08:32:38.338Z,99938.81
2023-01-07T08:35:40.267Z,99937.80
2023-01-07T08:38:41.981Z,99938.16
2023-01-07T08:41:43.445Z,99941.14
2023-01-07T08:44:45.057Z,99941.44
2023-01-07T08:47:46.815Z,99938.77
2023-01-07T08:50:51.912Z,99936.45
2023-01-07T08:53:54.787Z,99936.67
2023-01-07T08:56:57.074Z,99941.70
2023-01-07T08:59:58.580Z,99941.26
2023-01-07T09:03:00.205Z,99935.58
2023-01-07T09:06:01.821Z,99938.00
2023-01-07T09:09:03.570Z,99937.58
2023-01-07T09:12:05.952Z,99941.46
2023-01-07T09:15:08.586Z,99940.97
2023-01-07T09:18:10.291Z,99941.59
2023-01-07T09:21:11.939Z,99944.94
2023-01-07T09:24:22.181Z,99947.79
2023-01-07T09:27:23.801Z,99947.52
2023-01-07T09:30:26.021Z,99944.16
2023-01-07T09:33:27.670Z,99947.02
2023-01-07T09:36:29.391Z,99946.88
2023-01-07T09:39:31.020Z,99949.30
2023-01-07T09:43:05.046Z,99947.10
2023-01-07T09:46:08.040Z,99941.98
2023-01-07T09:49:15.280Z,99935.20
2023-01-07T09:52:24.179Z,99934.64
2023-01-07T09:55:36.195Z,99935.02
2023-01-07T09:58:38.133Z,99931.08
2023-01-07T10:01:51.969Z,99927.73
2023-01-07T10:05:30.082Z,99931.13
2023-01-07T10:08:42.801Z,99930.58
2023-01-07T10:11:50.600Z,99930.11
2023-01-07T10:15:21.389Z,99928.98
2023-01-07T10:18:44.716Z,99923.96
2023-01-07T10:21:57.725Z,99918.98
2023-01-07T10:25:04.361Z,99912.88
2023-01-07T10:28:11.922Z,99910.05
2023-01-07T10:31:19.792Z,99903.70
2023-01-07T10:34:36.149Z,99901.04
2023-01-07T10:37:39.656Z,99899.06
2023-01-07T10:40:51.888Z,99895.73
2023-01-07T10:44:20.052Z,99888.14
2023-01-07T10:47:34.080Z,99881.65
2023-01-07T10:51:01.754Z,99880.37
2023-01-07T10:54:22.833Z,99880.10
2023-01-07T10:57:26.212Z,99880.24
2023-01-07T11:00:28.059Z,99882.28
2023-01-07T11:03:29.609Z,99875.95
2023-01-07T11:06:48.941Z,99874.85
2023-01-07T11:09:50.950Z,99868.20
2023-01-07T11:12:56.667Z,99870.83
2023-01-07T11:16:21.411Z,99867.02
2023-01-07T11:19:41.821Z,99866.77
2023-01-07T11:22:44.778Z,99863.25
2023-01-07T11:25:47.405Z,99862.74
2023-01-07T11:29:00.622Z,99860.79
2023-01-07T11:32:02.253Z,99858.55
2023-01-07T11:35:22.915Z,99854.29
2023-01-07T11:38:33.445Z,99852.90
2023-01-07T11:41:35.196Z,99857.23
2023-01-07T11:44:36.861Z,99847.21
2023-01-07T11:47:40.295Z,99852.34
2023-01-07T11:50:43.970Z,99847.81
2023-01-07T11:53:59.041Z,99845.19
2023-01-07T11:57:17.701Z,99832.89
2023-01-07T12:00:20.885Z,99821.84
2023-01-07T12:03:22.560Z,99826.29
2023-01-07T12:06:27.564Z,99818.95
2023-01-07T12:09:34.687Z,99814.23
2023-01-07T12:12:37.220Z,99813.55
2023-01-07T12:15:52.189Z,99810.95
2023-01-07T12:19:09.352Z,99815.09
2023-01-07T12:22:41.279Z,99809.23
2023-01-07T12:25:58.823Z,99802.45
2023-01-07T12:29:16.929Z,99803.56
2023-01-07T12:32:41.273Z,99799.27
2023-01-07T12:35:44.448Z,99795.80
2023-01-07T12:38:50.191Z,99796.45
2023-01-07T12:42:13.135Z,99797.57
2023-01-07T12:45:25.688Z,99796.17
2023-01-07T12:48:53.290Z,99794.18
2023-01-07T12:52:05.069Z,99785.38
2023-01-07T12:55:44.737Z,99786.92
2023-01-07T12:58:49.393Z,99784.65
2023-01-07T13:01:57.713Z,99788.74
2023-01-07T13:05:11.394Z,99795.11
2023-01-07T13:08:37.946Z,99796.74
2023-01-07T13:11:46.418Z,99787.54
2023-01-07T13:14:51.959Z,99784.58
2023-01-07T13:18:02.528Z,99779.74
2023-01-07T13:21:08.077Z,99776.59
2023-01-07T13:24:56.559Z,99775.13
2023-01-07T13:28:10.821Z,99771.92
2023-01-07T13:31:46.539Z,99769.59
2023-01-07T13:35:03.409Z,99771.88
2023-01-07T13:38:12.109Z,99771.02
2023-01-07T13:41:45.678Z,99776.45
2023-01-07T13:45:21.669Z,99777.17
2023-01-07T13:48:26.341Z,99772.92
2023-01-07T13:51:30.933Z,99773.55
2023-01-07T13:54:53.504Z,99774.10
2023-01-07T13:57:55.184Z,99774.89
2023-01-07T14:01:03.166Z,99775.85
2023-01-07T14:04:04.830Z,99777.95
2023-01-07T14:07:07.605Z,99779.91
2023-01-07T14:10:29.944Z,99771.70
2023-01-07T14:13:52.863Z,99767.34
2023-01-07T14:17:13.392Z,99769.30
2023-01-07T14:20:46.091Z,99771.08
2023-01-07T14:24:16.716Z,99769.80
2023-01-07T14:27:29.097Z,99764.77
2023-01-07T14:30:45.784Z,99759.33
2023-01-07T14:33:50.702Z,99758.93
2023-01-07T14:37:01.536Z,99756.94
2023-01-07T14:40:25.981Z,99755.73
2023-01-07T14:43:42.974Z,99754.46
2023-01-07T14:46:46.431Z,99752.02
2023-01-07T14:49:51.002Z,99750.69
2023-01-07T14:53:16.453Z,99751.14
2023-01-07T14:56:23.745Z,99746.46
2023-01-07T14:59:53.497Z,99742.35
2023-01-07T15:03:31.084Z,99744.46
2023-01-07T15:06:38.954Z,99742.86
2023-01-07T15:09:52.338Z,99739.71
2023-01-07T15:12:55.697Z,99738.88
2023-01-07T15:15:57.478Z,99735.30
2023-01-07T15:18:59.157Z,99732.38
2023-01-07T15:22:20.892Z,99735.49
2023-01-07T15:25:46.520Z,99730.67
2023-01-07T15:28:51.325Z,99735.57
2023-01-07T15:32:08.421Z,99732.50
2023-01-07T15:35:40.168Z,99741.62
2023-01-07T15:38:50.763Z,99740.34
2023-01-07T15:41:54.373Z,99737.31
2023-01-07T15:44:57.468Z,99738.54
2023-01-07T15:48:07.909Z,99737.20
2023-01-07T15:51:15.667Z,99737.81
2023-01-07T15:54:35.012Z,99738.80
2023-01-07T15:57:36.580Z,99739.07
2023-01-07T16:00:38.205Z,99741.13
2023-01-07T16:03:41.970Z,99742.00
2023-01-07T16:06:43.677Z,99740.92
2023-01-07T16:09:45.164Z,99739.17
2023-01-07T16:12:52.372Z,99740.54
2023-01-07T16:15:59.294Z,99736.58
2023-01-07T16:19:02.593Z,99731.58
2023-01-07T16:22:04.244Z,99727.84
2023-01-07T16:25:06.813Z,99725.09
2023-01-07T16:28:16.239Z,99728.30
2023-01-07T16:31:21.568Z,99726.67
2023-01-07T16:34:26.322Z,99723.71
2023-01-07T16:37:28.614Z,99721.59
2023-01-07T16:40:34.557Z,99716.02
2023-01-07T16:43:38.997Z,99710.30
2023-01-07T16:46:40.562Z,99708.20
2023-01-07T16:49:42.240Z,99706.38
2023-01-07T16:52:55.315Z,99697.96
2023-01-07T16:56:15.403Z,99698.59
2023-01-07T16:59:17.263Z,99690.23
2023-01-07T17:02:28.241Z,99691.37
2023-01-07T17:05:31.141Z,99693.03
2023-01-07T17:08:33.959Z,99693.80
2023-01-07T17:11:38.542Z,99693.59
2023-01-07T17:14:49.997Z,99692.64
2023-01-07T17:17:51.617Z,99686.90
2023-01-07T17:20:54.508Z,99679.73
2023-01-07T17:23:56.266Z,99675.88
2023-01-07T17:26:58.416Z,99675.15
2023-01-07T17:30:04.914Z,99670.06
2023-01-07T17:33:06.596Z,99670.04
2023-01-07T17:36:26.714Z,99672.36
2023-01-07T17:39:28.352Z,99681.11
2023-01-07T17:42:32.993Z,99679.77
2023-01-07T17:45:35.264Z,99678.16
2023-01-07T17:48:37.060Z,99675.90
2023-01-07T17:51:41.031Z,99670.05
2023-01-07T17:54:44.210Z,99673.09
2023-01-07T17:57:45.972Z,99673.45
2023-01-07T18:00:47.536Z,99672.81
2023-01-07T18:03:50.423Z,99672.31
2023-01-07T18:06:52.005Z,99676.44
2023-01-07T18:09:53.600Z,99678.55
2023-01-07T18:12:55.151Z,99679.05
2023-01-07T18:15:57.701Z,99676.54
2023-01-07T18:18:59.268Z,99673.50
2023-01-07T18:22:00.854Z,99674.58
2023-01-07T18:25:02.467Z,99673.45
2023-01-07T18:28:04.224Z,99674.14
2023-01-07T18:31:05.716Z,99678.08
2023-01-07T18:34:08.766Z,99680.81
2023-01-07T18:37:10.428Z,99678.77
2023-01-07T18:40:11.967Z,99676.57
2023-01-07T18:43:14.968Z,99680.85
2023-01-07T18:46:17.801Z,99676.28
2023-01-07T18:49:19.507Z,99676.16
2023-01-07T18:52:21.103Z,99681.84
2023-01-07T18:55:22.708Z,99681.02
2023-01-07T18:58:24.524Z,99682.95
2023-01-07T19:01:26.200Z,99688.09
2023-01-07T19:04:28.051Z,99688.66
2023-01-07T19:07:29.868Z,99685.48
2023-01-07T19:10:31.688Z,99685.52
2023-01-07T19:13:33.271Z,99686.27
2023-01-07T19:16:35.945Z,99682.39
2023-01-07T19:19:48.029Z,99687.20
2023-01-07T19:22:50.127Z,99692.34
2023-01-07T19:26:03.220Z,99689.13
2023-01-07T19:29:04.961Z,99691.20
2023-01-07T19:32:06.451Z,99694.95
2023-01-07T19:35:08.708Z,99697.16
2023-01-07T19:38:10.953Z,99700.90
2023-01-07T19:41:14.881Z,99698.34
2023-01-07T19:44:16.761Z,99695.43
2023-01-07T19:47:18.486Z,99694.92
2023-01-07T19:50:20.023Z,99692.20
2023-01-07T19:53:21.638Z,99687.96
2023-01-07T19:56:23.210Z,99687.81
2023-01-07T19:59:25.808Z,99689.71
2023-01-07T20:02:27.573Z,99680.53
2023-01-07T20:05:29.292Z,99675.63
2023-01-07T20:08:31.254Z,99673.61
2023-01-07T20:11:32.816Z,99673.10
2023-01-07T20:14:34.497Z,99676.34
2023-01-07T20:17:36.105Z,99673.79
2023-01-07T20:20:37.713Z,99669.18
2023-01-07T20:23:40.669Z,99668.86
2023-01-07T20:26:42.212Z,99663.08
2023-01-07T20:29:44.018Z,99661.21
2023-01-07T20:32:45.621Z,99661.02
2023-01-07T20:35:47.123Z,99661.89
2023-01-07T20:38:48.771Z,99654.39
2023-01-07T20:41:50.370Z,99659.48
2023-01-07T20:44:51.928Z,99656.60
2023-01-07T20:47:53.528Z,99662.89
2023-01-07T20:50:55.293Z,99657.97
2023-01-07T20:53:57.815Z,99660.35
2023-01-07T20:56:59.349Z,99662.05
2023-01-07T21:00:01.000Z,99659.51
2023-01-07T21:03:02.792Z,99660.70
2023-01-07T21:06:04.942Z,99660.20
2023-01-07T21:09:06.656Z,99662.92
2023-01-07T21:12:08.284Z,99664.61
2023-01-07T21:15:11.549Z,99668.67
2023-01-07T21:18:13.286Z,99663.58
2023-01-07T21:21:19.255Z,99663.58
2023-01-07T21:24:21.052Z,99665.27
2023-01-07T21:27:22.567Z,99664.93
2023-01-07T21:30:24.070Z,99662.89
2023-01-07T21:33:25.599Z,99660.19
2023-01-07T21:36:28.240Z,99657.31
2023-01-07T21:39:29.849Z,99661.55
2023-01-07T21:42:31.488Z,99659.83
2023-01-07T21:45:33.069Z,99659.95
2023-01-07T21:48:36.780Z,99660.48
2023-01-07T21:51:42.656Z,99656.41
2023-01-07T21:54:44.314Z,99652.85
2023-01-07T21:57:46.087Z,99652.35
2023-01-07T22:00:53.934Z,99654.73
2023-01-07T22:03:56.899Z,99653.03
2023-01-07T22:06:58.605Z,99652.01
2023-01-07T22:10:00.184Z,99643.68
2023-01-07T22:13:01.772Z,99641.66
2023-01-07T22:16:04.844Z,99639.63
2023-01-07T22:19:06.463Z,99640.13
2023-01-07T22:22:08.146Z,99641.66
2023-01-07T22:25:09.859Z,99640.31
2023-01-07T22:28:11.579Z,99634.00
2023-01-07T22:31:24.207Z,99630.96
2023-01-07T22:34:26.318Z,99625.34
2023-01-07T22:37:27.889Z,99628.75
2023-01-07T22:40:30.478Z,99627.05
2023-01-07T22:43:32.347Z,99627.71
2023-01-07T22:46:34.140Z,99618.03
2023-01-07T22:49:35.768Z,99621.27
2023-01-07T22:52:38.263Z,99615.33
2023-01-07T22:55:40.397Z,99611.25
2023-01-07T22:58:42.018Z,99614.47
2023-01-07T23:01:43.695Z,99614.46
2023-01-07T23:04:45.272Z,99614.11
2023-01-07T23:07:46.879Z,99611.05
2023-01-07T23:10:48.803Z,99607.98
2023-01-07T23:13:50.449Z,99604.41
2023-01-07T23:16:52.539Z,99603.23
2023-01-07T23:19:54.216Z,99597.45
2023-01-07T23:22:55.877Z,99590.15
2023-01-07T23:25:57.442Z,99582.84
2023-01-07T23:28:59.247Z,99571.98
2023-01-07T23:32:01.036Z,99548.89
2023-01-07T23:35:02.573Z,99536.48
2023-01-07T23:38:04.336Z,99532.36
2023-01-07T23:41:07.055Z,99538.80
2023-01-07T23:44:08.640Z,99544.59
2023-01-07T23:47:10.193Z,99548.71
2023-01-07T23:50:12.564Z,99544.30
2023-01-07T23:53:14.124Z,99542.77
2023-01-07T23:56:18.996Z,99536.48
2023-01-07T23:59:20.621Z,99533.94
